Time;durP1;ratioP1;P1;durP2;ratioP2;P2;SDS_P1;SDS_P2;PMS_P1;PMS_P2;Temp;Humidity;BMP_temperature;BMP_pressure;BME280_temperature;BME280_humidity;BME280_pressure;Samples;Min_cycle;Max_cycle;Signal;HPM_P1;HPM_P2
2022/04/10 00:00:39;;;;;;;1.52;0.70;;;6.70;92.70;;;;;;5026536;28;20040;-69
2022/04/10 00:03:05;;;;;;;0.65;0.40;;;6.70;92.50;;;;;;5029696;28;20064;-69
2022/04/10 00:05:31;;;;;;;1.27;0.60;;;6.70;91.80;;;;;;5027137;28;20037;-69
2022/04/10 00:07:57;;;;;;;1.05;0.50;;;6.70;91.70;;;;;;5026403;28;20041;-70
2022/04/10 00:10:23;;;;;;;1.48;0.57;;;6.80;91.80;;;;;;5027840;28;20033;-69
2022/04/10 00:12:49;;;;;;;1.02;0.70;;;6.70;91.60;;;;;;5031485;28;20116;-70
2022/04/10 00:15:15;;;;;;;1.25;0.75;;;6.80;91.70;;;;;;5027982;28;20037;-70
2022/04/10 00:17:41;;;;;;;0.88;0.40;;;6.80;91.90;;;;;;5033305;28;20017;-70
2022/04/10 00:20:09;;;;;;;0.95;0.60;;;6.90;92.20;;;;;;5029992;28;20044;-70
2022/04/10 00:22:42;;;;;;;0.38;0.38;;;7.00;91.50;;;;;;5033697;28;20037;-70
2022/04/10 00:25:09;;;;;;;3.00;0.45;;;7.10;90.40;;;;;;5032449;28;20025;-70
2022/04/10 00:27:35;;;;;;;0.40;0.40;;;7.10;90.40;;;;;;5028127;28;20033;-69
2022/04/10 00:30:01;;;;;;;0.93;0.50;;;7.20;91.50;;;;;;5036435;28;20039;-70
2022/04/10 00:32:29;;;;;;;0.82;0.57;;;7.10;91.40;;;;;;5030504;28;20044;-70
2022/04/10 00:34:55;;;;;;;0.63;0.50;;;7.00;90.10;;;;;;5036357;28;20034;-70
2022/04/10 00:37:21;;;;;;;0.73;0.43;;;6.80;90.80;;;;;;5027248;28;20033;-71
2022/04/10 00:39:47;;;;;;;1.02;0.45;;;6.60;90.50;;;;;;5031355;28;20402;-70
2022/04/10 00:42:12;;;;;;;0.70;0.60;;;6.50;91.00;;;;;;5028411;28;20029;-70
2022/04/10 00:44:38;;;;;;;0.82;0.60;;;6.40;91.30;;;;;;5029002;28;20076;-70
2022/04/10 00:47:05;;;;;;;2.15;0.73;;;6.20;91.40;;;;;;5032686;28;20072;-70
2022/04/10 00:49:31;;;;;;;0.63;0.45;;;6.10;91.80;;;;;;5031198;28;20038;-69
2022/04/10 00:51:59;;;;;;;0.60;0.50;;;6.10;92.10;;;;;;5030700;28;20040;-70
2022/04/10 00:54:26;;;;;;;0.75;0.50;;;6.10;91.80;;;;;;5029569;28;20033;-70
2022/04/10 00:56:54;;;;;;;2.85;1.10;;;6.10;91.90;;;;;;5030249;28;20112;-70
2022/04/10 00:59:20;;;;;;;3.67;0.55;;;6.00;91.90;;;;;;5030369;28;24555;-70
2022/04/10 01:01:47;;;;;;;0.57;0.45;;;5.90;92.20;;;;;;5028706;28;20056;-69
2022/04/10 01:04:14;;;;;;;1.48;0.50;;;5.90;92.10;;;;;;5031623;28;20041;-70
2022/04/10 01:06:40;;;;;;;1.15;0.68;;;5.90;92.50;;;;;;5031010;28;20033;-70
2022/04/10 01:09:06;;;;;;;0.88;0.50;;;5.80;92.20;;;;;;5029330;28;20041;-70
2022/04/10 01:11:36;;;;;;;1.23;0.50;;;5.80;92.10;;;;;;5031041;28;20041;-70
2022/04/10 01:14:06;;;;;;;2.35;0.82;;;5.80;92.00;;;;;;5027892;28;20033;-70
2022/04/10 01:16:33;;;;;;;1.05;0.65;;;5.90;92.10;;;;;;5027918;28;20116;-69
2022/04/10 01:19:02;;;;;;;2.25;0.73;;;5.80;92.40;;;;;;5028731;28;20154;-70
2022/04/10 01:21:32;;;;;;;1.48;0.50;;;5.80;91.90;;;;;;5030729;28;20057;-70
2022/04/10 01:23:58;;;;;;;3.03;0.73;;;5.80;91.90;;;;;;5026569;28;20063;-70
2022/04/10 01:26:27;;;;;;;1.30;0.60;;;5.80;91.50;;;;;;5028072;28;20486;-68
2022/04/10 01:29:01;;;;;;;1.55;0.60;;;5.90;91.20;;;;;;5028816;28;20050;-69
2022/04/10 01:31:29;;;;;;;1.67;0.82;;;5.90;91.40;;;;;;5026926;28;20088;-70
2022/04/10 01:34:00;;;;;;;1.02;0.60;;;5.90;91.10;;;;;;5027858;28;20094;-70
2022/04/10 01:36:27;;;;;;;2.25;0.60;;;5.90;91.30;;;;;;5028797;28;20141;-70
2022/04/10 01:38:55;;;;;;;1.95;0.50;;;5.80;91.60;;;;;;5030024;28;20045;-69
2022/04/10 01:41:25;;;;;;;1.88;0.70;;;5.80;91.70;;;;;;5032848;28;20120;-69
2022/04/10 01:43:52;;;;;;;2.00;0.88;;;5.80;92.00;;;;;;5028224;28;20025;-69
2022/04/10 01:46:19;;;;;;;0.68;0.50;;;5.90;91.80;;;;;;5029443;28;20033;-69
2022/04/10 01:48:45;;;;;;;1.60;0.88;;;5.90;91.90;;;;;;5035605;28;20033;-69
2022/04/10 01:51:11;;;;;;;1.38;0.68;;;6.00;91.80;;;;;;5029394;28;20026;-70
2022/04/10 01:53:37;;;;;;;0.82;0.68;;;6.10;91.70;;;;;;5032604;28;20037;-69
2022/04/10 01:56:04;;;;;;;4.35;0.70;;;6.10;91.40;;;;;;5029501;28;20037;-70
2022/04/10 01:58:34;;;;;;;0.80;0.65;;;6.20;91.50;;;;;;5032578;28;20494;-70
2022/04/10 02:01:02;;;;;;;0.90;0.65;;;6.30;91.10;;;;;;5027223;28;20033;-70
2022/04/10 02:03:28;;;;;;;1.40;0.70;;;6.30;91.30;;;;;;5030167;28;20013;-70
2022/04/10 02:05:54;;;;;;;0.60;0.60;;;6.20;91.20;;;;;;5027940;28;20035;-69
2022/04/10 02:08:20;;;;;;;1.08;0.73;;;6.10;91.40;;;;;;5032768;28;20036;-69
2022/04/10 02:10:46;;;;;;;1.08;0.75;;;6.00;91.80;;;;;;5033348;28;20048;-69
2022/04/10 02:13:12;;;;;;;4.45;0.77;;;5.90;91.40;;;;;;5031388;28;20037;-69
2022/04/10 02:15:38;;;;;;;0.90;0.85;;;5.90;91.90;;;;;;5029947;28;20037;-69
2022/04/10 02:18:05;;;;;;;1.77;0.90;;;5.80;92.10;;;;;;5030358;28;20167;-70
2022/04/10 02:20:31;;;;;;;2.17;1.00;;;5.90;92.10;;;;;;5030951;28;20549;-69
2022/04/10 02:22:56;;;;;;;1.23;0.82;;;5.90;91.80;;;;;;5031522;28;20064;-69
2022/04/10 02:25:22;;;;;;;1.88;0.75;;;5.90;92.00;;;;;;5032025;28;21379;-69
2022/04/10 02:27:48;;;;;;;1.30;0.70;;;5.90;92.40;;;;;;5034856;28;20413;-69
2022/04/10 02:30:13;;;;;;;1.48;0.77;;;5.90;92.10;;;;;;5033195;28;20465;-69
2022/04/10 02:32:40;;;;;;;2.00;1.00;;;5.90;92.10;;;;;;5029118;28;20723;-69
2022/04/10 02:35:07;;;;;;;1.63;1.00;;;5.90;91.70;;;;;;5031157;28;20052;-69
2022/04/10 02:37:32;;;;;;;1.10;0.70;;;5.90;91.60;;;;;;5042932;28;20144;-69
2022/04/10 02:39:58;;;;;;;2.70;0.90;;;5.90;91.60;;;;;;5028411;28;20041;-69
2022/04/10 02:42:24;;;;;;;0.90;0.70;;;5.90;91.70;;;;;;5028108;28;20090;-69
2022/04/10 02:44:50;;;;;;;1.70;0.60;;;6.00;91.70;;;;;;5032033;28;20184;-69
2022/04/10 02:47:15;;;;;;;1.45;0.73;;;6.00;91.50;;;;;;5030608;28;20049;-69
2022/04/10 02:49:41;;;;;;;1.20;0.60;;;5.90;91.40;;;;;;5037027;28;20041;-69
2022/04/10 02:52:07;;;;;;;1.77;0.82;;;5.90;91.80;;;;;;5037588;28;20779;-69
2022/04/10 02:54:33;;;;;;;0.73;0.73;;;5.90;91.20;;;;;;5024986;28;20631;-69
2022/04/10 02:56:59;;;;;;;1.80;0.90;;;5.90;91.30;;;;;;5034046;28;20040;-69
2022/04/10 02:59:24;;;;;;;1.15;0.60;;;5.90;91.40;;;;;;5031545;28;20406;-69
2022/04/10 03:01:50;;;;;;;0.60;0.57;;;5.90;91.10;;;;;;5030567;28;20056;-69
2022/04/10 03:04:17;;;;;;;1.60;0.60;;;5.90;91.50;;;;;;5029396;28;20037;-69
2022/04/10 03:06:42;;;;;;;1.02;0.60;;;5.80;91.50;;;;;;5033554;28;20076;-69
2022/04/10 03:09:08;;;;;;;1.48;0.70;;;5.80;91.50;;;;;;5034491;28;20056;-69
2022/04/10 03:11:34;;;;;;;1.38;0.60;;;5.90;91.40;;;;;;5031190;28;20033;-69
2022/04/10 03:14:00;;;;;;;0.77;0.60;;;5.90;91.60;;;;;;5030197;28;20072;-69
2022/04/10 03:16:26;;;;;;;1.00;0.70;;;5.90;91.30;;;;;;5031616;28;20083;-69
2022/04/10 03:18:52;;;;;;;1.70;0.75;;;5.90;90.90;;;;;;5032282;28;20053;-69
2022/04/10 03:21:21;;;;;;;0.88;0.68;;;5.90;91.10;;;;;;5034731;28;20038;-69
2022/04/10 03:23:47;;;;;;;0.80;0.60;;;5.90;91.10;;;;;;5031780;28;20131;-69
2022/04/10 03:26:12;;;;;;;1.27;0.57;;;6.00;91.40;;;;;;5019870;28;20883;-68
2022/04/10 03:28:38;;;;;;;2.15;0.70;;;5.90;91.20;;;;;;5031111;28;20137;-69
2022/04/10 03:31:04;;;;;;;1.48;0.80;;;5.90;91.40;;;;;;5030965;28;20040;-69
2022/04/10 03:33:29;;;;;;;2.00;0.90;;;5.90;91.10;;;;;;5035830;28;20076;-69
2022/04/10 03:35:56;;;;;;;1.23;0.60;;;5.90;91.20;;;;;;5032369;28;20060;-69
2022/04/10 03:38:22;;;;;;;2.08;0.77;;;5.90;91.50;;;;;;5030752;28;20071;-69
2022/04/10 03:40:48;;;;;;;1.95;0.60;;;5.90;91.50;;;;;;5027496;28;20086;-69
2022/04/10 03:43:14;;;;;;;2.70;0.70;;;5.90;91.30;;;;;;5028255;28;20378;-69
2022/04/10 03:45:40;;;;;;;1.30;0.80;;;6.00;91.30;;;;;;5034043;28;20299;-69
2022/04/10 03:48:09;;;;;;;1.25;0.65;;;6.00;91.30;;;;;;5036425;28;20116;-69
2022/04/10 03:50:35;;;;;;;1.58;0.80;;;5.90;91.00;;;;;;5033377;28;20036;-69
2022/04/10 03:53:01;;;;;;;1.85;1.15;;;6.00;91.60;;;;;;5037495;28;20129;-69
2022/04/10 03:55:27;;;;;;;1.10;0.70;;;5.90;91.60;;;;;;5035570;28;20037;-69
2022/04/10 03:57:53;;;;;;;0.60;0.55;;;5.80;91.50;;;;;;5033114;28;20043;-69
2022/04/10 04:00:19;;;;;;;1.65;0.88;;;5.80;91.70;;;;;;5034551;28;20409;-69
2022/04/10 04:02:46;;;;;;;1.00;0.70;;;5.90;91.80;;;;;;5035885;28;20139;-69
2022/04/10 04:05:12;;;;;;;1.63;0.80;;;5.90;91.70;;;;;;5035859;28;20040;-69
2022/04/10 04:07:39;;;;;;;0.80;0.70;;;5.80;91.60;;;;;;5034319;28;20045;-69
2022/04/10 04:10:06;;;;;;;1.15;0.98;;;5.80;91.90;;;;;;5034948;28;20082;-69
2022/04/10 04:12:33;;;;;;;2.05;0.90;;;5.80;92.00;;;;;;5030634;28;20033;-69
2022/04/10 04:14:59;;;;;;;2.22;1.15;;;5.80;91.80;;;;;;5033966;28;20025;-69
2022/04/10 04:17:25;;;;;;;1.10;1.00;;;5.70;92.00;;;;;;5036173;28;20410;-69
2022/04/10 04:19:51;;;;;;;1.75;1.27;;;5.60;92.30;;;;;;5036102;28;20045;-70
2022/04/10 04:22:17;;;;;;;2.22;1.20;;;5.60;92.50;;;;;;5031480;28;20033;-69
2022/04/10 04:24:43;;;;;;;1.05;0.88;;;5.60;92.40;;;;;;5029980;28;20025;-69
2022/04/10 04:27:09;;;;;;;1.50;0.80;;;5.60;92.50;;;;;;5035014;28;20041;-69
2022/04/10 04:29:35;;;;;;;0.88;0.73;;;5.60;92.90;;;;;;5033054;28;20158;-69
2022/04/10 04:32:01;;;;;;;3.10;1.33;;;5.60;92.80;;;;;;5032710;28;20033;-69
2022/04/10 04:34:27;;;;;;;1.25;1.15;;;5.50;92.90;;;;;;5036016;28;20045;-70
2022/04/10 04:36:53;;;;;;;2.47;1.20;;;5.60;93.10;;;;;;5037684;28;20036;-69
2022/04/10 04:39:18;;;;;;;1.52;1.00;;;5.60;92.80;;;;;;5033555;28;20053;-69
2022/04/10 04:41:44;;;;;;;2.75;1.08;;;5.60;93.00;;;;;;5029837;28;20127;-69
2022/04/10 04:44:10;;;;;;;4.00;1.10;;;5.70;93.00;;;;;;5034708;28;20093;-69
2022/04/10 04:46:35;;;;;;;1.23;1.02;;;5.70;92.90;;;;;;5034094;28;20029;-69
2022/04/10 04:49:01;;;;;;;2.05;1.00;;;5.70;93.10;;;;;;5033280;28;20048;-69
2022/04/10 04:51:28;;;;;;;17.45;12.90;;;5.70;93.00;;;;;;5033327;28;20041;-69
2022/04/10 04:53:54;;;;;;;2.75;1.40;;;5.70;93.10;;;;;;5030643;28;20139;-69
2022/04/10 04:56:20;;;;;;;1.48;1.13;;;5.70;93.10;;;;;;5028266;28;20116;-69
2022/04/10 04:58:47;;;;;;;1.17;1.08;;;5.70;93.20;;;;;;5033425;28;20116;-69
2022/04/10 05:01:13;;;;;;;1.63;1.23;;;5.70;93.20;;;;;;5032693;28;20091;-69
2022/04/10 05:03:39;;;;;;;1.70;1.10;;;5.70;92.90;;;;;;5032247;28;20041;-69
2022/04/10 05:06:05;;;;;;;1.77;1.40;;;5.80;93.40;;;;;;5030149;28;20068;-69
2022/04/10 05:08:31;;;;;;;2.90;1.17;;;5.80;93.20;;;;;;5029689;28;20061;-69
2022/04/10 05:10:58;;;;;;;3.47;1.35;;;5.90;93.40;;;;;;5031468;28;20091;-69
2022/04/10 05:13:23;;;;;;;1.70;1.10;;;5.90;93.40;;;;;;5026061;28;20128;-69
2022/04/10 05:15:49;;;;;;;1.95;0.93;;;6.00;93.40;;;;;;5031559;28;20040;-69
2022/04/10 05:18:17;;;;;;;2.83;1.13;;;6.00;93.10;;;;;;5036127;28;20037;-69
2022/04/10 05:20:43;;;;;;;1.08;0.93;;;6.00;92.80;;;;;;5025222;28;20064;-69
2022/04/10 05:23:09;;;;;;;3.15;1.27;;;6.00;93.00;;;;;;5033533;28;20069;-69
2022/04/10 05:25:36;;;;;;;1.25;1.08;;;6.00;93.40;;;;;;5032311;28;20045;-72
2022/04/10 05:28:02;;;;;;;1.83;1.35;;;6.00;93.10;;;;;;5031367;28;20063;-72
2022/04/10 05:30:28;;;;;;;1.00;0.90;;;6.00;93.30;;;;;;5035697;28;20033;-70
2022/04/10 05:32:53;;;;;;;3.03;1.35;;;6.00;93.30;;;;;;5033806;28;20025;-70
2022/04/10 05:35:19;;;;;;;3.92;1.27;;;6.00;93.50;;;;;;5033902;28;20155;-70
2022/04/10 05:37:45;;;;;;;1.60;1.35;;;6.10;93.50;;;;;;5032435;28;20501;-70
2022/04/10 05:40:11;;;;;;;1.58;1.33;;;6.10;93.10;;;;;;5032659;28;20052;-70
2022/04/10 05:42:43;;;;;;;4.80;1.60;;;6.20;93.00;;;;;;5028294;28;20052;-70
2022/04/10 05:45:12;;;;;;;2.25;1.30;;;6.20;93.20;;;;;;5031634;28;20052;-70
2022/04/10 05:47:39;;;;;;;3.03;1.70;;;6.40;93.00;;;;;;5038286;28;20029;-70
2022/04/10 05:50:07;;;;;;;2.20;1.45;;;6.50;93.10;;;;;;5032019;28;20079;-70
2022/04/10 05:52:46;;;;;;;2.53;1.20;;;6.60;93.30;;;;;;5032968;28;20076;-70
2022/04/10 05:55:14;;;;;;;2.58;1.10;;;6.80;92.70;;;;;;5033347;28;20048;-70
2022/04/10 05:57:41;;;;;;;2.63;1.20;;;6.90;92.70;;;;;;5031056;28;20025;-70
2022/04/10 06:00:10;;;;;;;3.10;1.17;;;7.00;92.00;;;;;;5035062;28;20109;-70
2022/04/10 06:02:37;;;;;;;1.27;1.15;;;7.10;91.70;;;;;;5033064;28;20029;-69
2022/04/10 06:05:03;;;;;;;1.70;1.25;;;7.10;91.50;;;;;;5036255;28;20078;-70
2022/04/10 06:07:29;;;;;;;1.23;1.13;;;7.10;91.60;;;;;;5027119;28;20033;-70
2022/04/10 06:09:54;;;;;;;3.35;1.40;;;7.20;91.80;;;;;;5031176;28;20921;-69
2022/04/10 06:12:20;;;;;;;1.65;1.55;;;7.40;91.50;;;;;;5027677;28;20029;-70
2022/04/10 06:14:46;;;;;;;1.75;1.25;;;7.50;91.30;;;;;;5030431;28;20037;-70
2022/04/10 06:17:11;;;;;;;1.30;1.20;;;7.60;91.40;;;;;;5030195;28;20033;-70
2022/04/10 06:19:37;;;;;;;2.38;1.65;;;7.70;90.90;;;;;;5031945;28;20044;-69
2022/04/10 06:22:03;;;;;;;1.05;1.05;;;7.60;90.20;;;;;;5030957;28;20083;-70
2022/04/10 06:24:29;;;;;;;2.35;1.92;;;7.70;90.80;;;;;;5034796;28;20128;-70
2022/04/10 06:26:55;;;;;;;1.73;1.10;;;7.90;90.40;;;;;;5026368;28;20111;-70
2022/04/10 06:29:20;;;;;;;2.08;1.88;;;7.90;89.80;;;;;;5029331;28;20043;-70
2022/04/10 06:31:47;;;;;;;1.30;1.10;;;7.90;89.90;;;;;;5033967;28;20128;-70
2022/04/10 06:34:12;;;;;;;2.80;1.70;;;8.00;90.70;;;;;;5032737;28;20420;-70
2022/04/10 06:36:39;;;;;;;2.08;1.40;;;8.10;90.50;;;;;;5035932;28;20017;-69
2022/04/10 06:39:05;;;;;;;3.13;1.20;;;8.10;90.70;;;;;;5030788;28;20132;-70
2022/04/10 06:41:30;;;;;;;1.95;1.27;;;8.10;91.00;;;;;;5022929;28;20086;-70
2022/04/10 06:43:56;;;;;;;1.63;1.38;;;8.20;92.50;;;;;;5026329;28;20439;-70
2022/04/10 06:46:23;;;;;;;1.92;1.55;;;8.30;89.90;;;;;;5022754;28;20486;-69
2022/04/10 06:48:49;;;;;;;1.55;1.45;;;8.10;90.10;;;;;;5028080;28;20489;-69
2022/04/10 06:51:16;;;;;;;4.55;3.22;;;8.00;90.70;;;;;;5033133;28;20083;-69
2022/04/10 06:53:42;;;;;;;1.58;1.40;;;8.10;91.90;;;;;;5029807;28;20063;-69
2022/04/10 06:56:08;;;;;;;1.48;1.35;;;8.20;90.70;;;;;;5032222;28;20426;-70
2022/04/10 06:58:34;;;;;;;1.80;1.23;;;8.20;90.10;;;;;;5031354;28;20561;-69
2022/04/10 07:01:00;;;;;;;3.60;1.27;;;8.10;90.80;;;;;;5029229;28;20037;-70
2022/04/10 07:03:25;;;;;;;2.00;1.70;;;8.10;90.30;;;;;;5029760;28;20123;-70
2022/04/10 07:05:51;;;;;;;1.80;1.70;;;8.10;90.90;;;;;;5028729;28;20127;-69
2022/04/10 07:08:17;;;;;;;2.90;1.60;;;8.20;91.10;;;;;;5019474;28;20992;-70
2022/04/10 07:10:43;;;;;;;1.40;1.30;;;8.20;91.50;;;;;;5024459;28;20053;-70
2022/04/10 07:13:08;;;;;;;1.77;1.33;;;8.30;90.30;;;;;;5027558;28;20033;-70
2022/04/10 07:15:34;;;;;;;2.40;2.17;;;8.20;90.40;;;;;;5022302;28;20045;-70
2022/04/10 07:18:00;;;;;;;3.55;1.92;;;8.30;90.00;;;;;;5017893;28;20030;-69
2022/04/10 07:20:26;;;;;;;4.38;3.17;;;8.40;90.80;;;;;;5029221;28;20039;-70
2022/04/10 07:25:36;;;;;;;1.70;1.60;;;8.40;87.70;;;;;;5024800;28;20056;-70
2022/04/10 07:28:03;;;;;;;1.17;1.08;;;8.30;90.40;;;;;;5029567;28;20449;-69
2022/04/10 07:30:29;;;;;;;2.22;1.73;;;8.30;89.30;;;;;;5025586;28;20730;-69
2022/04/10 07:32:57;;;;;;;1.45;1.27;;;8.30;90.40;;;;;;5023895;28;22250;-68
2022/04/10 07:35:24;;;;;;;2.92;1.13;;;8.40;89.90;;;;;;5029660;28;20061;-69
2022/04/10 07:37:51;;;;;;;2.92;1.13;;;8.40;89.90;;;;;;5028644;28;20132;-69
2022/04/10 07:40:19;;;;;;;1.65;1.50;;;8.50;89.30;;;;;;5024947;28;20049;-69
2022/04/10 07:42:45;;;;;;;1.92;1.40;;;8.50;88.20;;;;;;5025035;28;20064;-68
2022/04/10 07:47:59;;;;;;;2.00;1.50;;;8.70;88.10;;;;;;5029579;28;20102;-70
2022/04/10 07:50:25;;;;;;;1.58;1.30;;;8.80;86.00;;;;;;5025824;28;20045;-72
2022/04/10 07:52:51;;;;;;;1.98;1.33;;;8.70;86.90;;;;;;5026968;28;20056;-71
2022/04/10 07:55:17;;;;;;;1.65;1.13;;;8.70;86.00;;;;;;5026870;28;20039;-71
2022/04/10 07:57:43;;;;;;;2.72;2.08;;;8.70;88.40;;;;;;5029775;28;20033;-71
2022/04/10 08:00:09;;;;;;;3.67;2.83;;;8.90;87.20;;;;;;5024354;28;20045;-71
2022/04/10 08:02:36;;;;;;;2.60;2.28;;;9.00;86.20;;;;;;5026277;28;20034;-71
2022/04/10 08:05:03;;;;;;;2.22;1.95;;;9.00;87.50;;;;;;5029101;28;20582;-71
2022/04/10 08:07:29;;;;;;;2.25;1.67;;;9.10;88.70;;;;;;5030233;28;20418;-70
2022/04/10 08:09:54;;;;;;;3.78;2.47;;;9.10;86.20;;;;;;5031417;28;20099;-70
2022/04/10 08:12:20;;;;;;;1.45;1.35;;;9.00;86.40;;;;;;5034005;28;20045;-70
2022/04/10 08:14:46;;;;;;;0.90;0.80;;;8.90;85.90;;;;;;5027038;28;20177;-70
2022/04/10 08:17:12;;;;;;;2.42;1.80;;;9.00;84.80;;;;;;5031198;28;20522;-70
2022/04/10 08:19:38;;;;;;;1.20;1.10;;;9.10;86.70;;;;;;5029772;28;20041;-70
2022/04/10 08:22:04;;;;;;;1.85;1.20;;;9.30;83.50;;;;;;5028666;28;20044;-70
2022/04/10 08:24:30;;;;;;;1.10;1.00;;;9.30;83.30;;;;;;5025102;28;20693;-70
2022/04/10 08:26:56;;;;;;;1.95;1.60;;;9.50;84.30;;;;;;5022816;28;20025;-71
2022/04/10 08:29:22;;;;;;;1.20;1.00;;;9.60;84.60;;;;;;5024776;28;20041;-71
2022/04/10 08:31:47;;;;;;;1.52;1.20;;;9.80;85.00;;;;;;5029932;28;20580;-71
2022/04/10 08:34:14;;;;;;;1.67;1.27;;;9.80;82.50;;;;;;5026973;28;20041;-71
2022/04/10 08:36:40;;;;;;;2.30;1.13;;;9.70;80.70;;;;;;5030879;28;20029;-70
2022/04/10 08:39:07;;;;;;;1.20;1.10;;;9.70;83.20;;;;;;5031853;28;20068;-71
2022/04/10 08:41:37;;;;;;;1.20;1.10;;;9.60;85.80;;;;;;5030642;28;20025;-71
2022/04/10 08:44:04;;;;;;;3.35;1.10;;;9.70;82.30;;;;;;5028879;28;20130;-70
2022/04/10 08:46:33;;;;;;;2.78;1.35;;;9.80;83.40;;;;;;5032903;28;20033;-70
2022/04/10 08:49:00;;;;;;;1.10;1.10;;;10.00;84.40;;;;;;5027569;28;20044;-70
2022/04/10 08:51:28;;;;;;;1.75;1.35;;;10.00;81.30;;;;;;5030192;28;20021;-70
2022/04/10 08:53:57;;;;;;;3.58;1.25;;;10.00;86.20;;;;;;5029757;28;20057;-70
2022/04/10 08:56:23;;;;;;;1.20;1.10;;;10.10;80.80;;;;;;5028630;28;20166;-70
2022/04/10 08:58:49;;;;;;;3.38;1.20;;;10.20;79.70;;;;;;5027706;28;20106;-70
2022/04/10 09:01:19;;;;;;;1.73;1.25;;;10.00;79.80;;;;;;5028339;28;20044;-70
2022/04/10 09:03:46;;;;;;;1.20;1.10;;;10.10;86.90;;;;;;5033209;28;20052;-70
2022/04/10 09:06:13;;;;;;;2.53;1.20;;;10.50;82.90;;;;;;5027093;28;20095;-70
2022/04/10 09:08:39;;;;;;;1.83;1.30;;;10.50;83.10;;;;;;5022393;28;20072;-70
2022/04/10 09:11:11;;;;;;;1.90;1.30;;;10.50;83.20;;;;;;5031218;28;20082;-70
2022/04/10 09:13:48;;;;;;;1.40;1.30;;;10.60;80.10;;;;;;5029989;28;20065;-70
2022/04/10 09:16:22;;;;;;;2.17;1.17;;;10.40;83.50;;;;;;5031362;28;20040;-70
2022/04/10 09:18:58;;;;;;;2.50;1.30;;;10.40;84.20;;;;;;5028599;28;20025;-70
2022/04/10 09:21:24;;;;;;;1.88;1.13;;;10.50;83.50;;;;;;5035588;28;20025;-70
2022/04/10 09:24:08;;;;;;;1.70;1.20;;;10.70;81.00;;;;;;5035213;28;20044;-70
2022/04/10 09:26:55;;;;;;;2.40;1.27;;;10.60;81.50;;;;;;5032702;28;20033;-70
2022/04/10 09:29:22;;;;;;;2.65;1.20;;;10.60;79.50;;;;;;5029782;28;20034;-69
2022/04/10 09:31:49;;;;;;;2.67;1.30;;;10.40;82.00;;;;;;5028123;28;20056;-70
2022/04/10 09:34:17;;;;;;;2.17;1.30;;;10.50;82.10;;;;;;5035178;28;21788;-70
2022/04/10 09:36:45;;;;;;;1.25;1.00;;;10.60;79.80;;;;;;5035652;28;20029;-71
2022/04/10 09:39:14;;;;;;;2.08;1.10;;;10.60;80.20;;;;;;5034194;28;20190;-70
2022/04/10 09:41:43;;;;;;;2.58;1.20;;;10.50;81.30;;;;;;5028503;28;20406;-70
2022/04/10 09:44:22;;;;;;;1.40;1.20;;;10.60;76.80;;;;;;5030380;28;20124;-71
2022/04/10 09:47:08;;;;;;;1.15;1.05;;;10.60;78.10;;;;;;5032681;28;20028;-70
2022/04/10 09:49:37;;;;;;;2.08;1.08;;;10.80;81.90;;;;;;5029365;28;20021;-70
2022/04/10 09:52:09;;;;;;;1.33;1.05;;;10.90;78.30;;;;;;5029915;28;20263;-70
2022/04/10 09:54:37;;;;;;;1.58;1.05;;;10.80;76.60;;;;;;5031088;28;20025;-70
2022/04/10 09:57:05;;;;;;;3.75;1.52;;;10.80;74.50;;;;;;5029778;28;20087;-71
2022/04/10 09:59:37;;;;;;;2.72;1.20;;;10.70;75.10;;;;;;5032620;28;20041;-71
2022/04/10 10:02:07;;;;;;;2.42;1.40;;;10.70;78.80;;;;;;5031943;28;20030;-71
2022/04/10 10:04:37;;;;;;;3.03;1.42;;;10.70;78.60;;;;;;5028774;28;20140;-71
2022/04/10 10:07:19;;;;;;;1.80;1.02;;;10.90;79.30;;;;;;5032216;28;20424;-70
2022/04/10 10:09:46;;;;;;;3.47;1.63;;;11.00;76.90;;;;;;5035775;28;20056;-71
2022/04/10 10:12:13;;;;;;;2.15;1.10;;;11.10;75.30;;;;;;5028736;28;20057;-70
2022/04/10 10:14:39;;;;;;;1.83;1.17;;;11.00;76.80;;;;;;5032849;28;20030;-70
2022/04/10 10:17:06;;;;;;;2.55;1.00;;;10.90;79.30;;;;;;5030486;28;20078;-71
2022/04/10 10:19:34;;;;;;;2.00;1.20;;;11.00;76.40;;;;;;5028292;28;20138;-71
2022/04/10 10:22:02;;;;;;;1.52;1.20;;;11.10;75.90;;;;;;5031183;28;20043;-71
2022/04/10 10:24:33;;;;;;;2.88;1.38;;;11.10;77.90;;;;;;5029322;28;20037;-71
2022/04/10 10:27:33;;;;;;;1.67;1.30;;;11.10;73.70;;;;;;5028121;28;20055;-70
2022/04/10 10:30:18;;;;;;;1.52;1.02;;;11.10;77.20;;;;;;5026263;28;20039;-71
2022/04/10 10:32:50;;;;;;;2.92;1.80;;;11.20;73.10;;;;;;5026188;28;20059;-71
2022/04/10 10:35:33;;;;;;;6.38;1.65;;;11.10;72.20;;;;;;5026147;28;20123;-71
2022/04/10 10:38:02;;;;;;;7.28;3.90;;;11.10;76.60;;;;;;5030852;28;20033;-71
2022/04/10 10:40:29;;;;;;;1.35;1.25;;;11.30;72.90;;;;;;5030881;28;20534;-71
2022/04/10 10:43:01;;;;;;;5.75;2.33;;;11.30;73.30;;;;;;5028900;28;20087;-71
2022/04/10 10:45:37;;;;;;;1.25;0.93;;;11.60;74.30;;;;;;5025654;28;20017;-71
2022/04/10 10:48:23;;;;;;;1.92;1.20;;;11.70;71.70;;;;;;5031230;28;20418;-71
2022/04/10 10:50:53;;;;;;;1.10;0.80;;;11.60;67.00;;;;;;5030830;28;20025;-71
2022/04/10 10:53:44;;;;;;;2.47;1.20;;;11.40;68.60;;;;;;5034886;28;20037;-72
2022/04/10 10:56:14;;;;;;;3.80;1.27;;;11.20;69.40;;;;;;5029734;28;20030;-71
2022/04/10 10:58:40;;;;;;;4.13;1.48;;;11.20;70.50;;;;;;5033197;28;20451;-72
2022/04/10 11:01:07;;;;;;;2.33;1.33;;;11.00;67.20;;;;;;5032171;28;20130;-71
2022/04/10 11:04:03;;;;;;;2.03;1.50;;;10.90;69.20;;;;;;5027911;28;20044;-71
2022/04/10 11:06:44;;;;;;;4.18;1.95;;;11.00;72.00;;;;;;5023660;28;20196;-72
2022/04/10 11:09:29;;;;;;;1.67;1.27;;;11.10;69.60;;;;;;5018190;28;20425;-72
2022/04/10 11:11:57;;;;;;;1.45;1.10;;;11.10;71.10;;;;;;5027420;28;20026;-71
2022/04/10 11:14:37;;;;;;;1.42;0.98;;;11.30;71.60;;;;;;5025109;28;20534;-72
2022/04/10 11:17:14;;;;;;;1.67;0.95;;;11.30;69.80;;;;;;5027211;28;20480;-71
2022/04/10 11:19:49;;;;;;;1.50;0.70;;;11.10;70.00;;;;;;5026656;28;20201;-71
2022/04/10 11:22:20;;;;;;;1.88;1.10;;;11.20;70.70;;;;;;5025493;28;20488;-71
2022/04/10 11:24:53;;;;;;;1.17;0.93;;;11.20;67.70;;;;;;5027801;28;20025;-71
2022/04/10 11:27:51;;;;;;;1.23;0.68;;;11.10;68.90;;;;;;5022581;28;20090;-71
2022/04/10 11:30:29;;;;;;;2.63;0.73;;;11.10;69.60;;;;;;5026571;28;20202;-71
2022/04/10 11:32:58;;;;;;;2.72;1.00;;;10.90;69.30;;;;;;5027051;28;20030;-71
2022/04/10 11:35:30;;;;;;;2.15;0.80;;;10.90;70.10;;;;;;5025731;28;20029;-71
2022/04/10 11:37:57;;;;;;;;;;;11.10;72.90;;;;;;5029931;28;20042;-70
2022/04/10 11:40:25;;;;;;;6.00;0.77;;;11.30;70.10;;;;;;5029080;28;20016;-71
2022/04/10 11:42:54;;;;;;;1.60;0.60;;;11.50;69.80;;;;;;5031013;28;20029;-70
2022/04/10 11:45:21;;;;;;;1.77;0.80;;;11.50;67.00;;;;;;5029553;28;20032;-70
2022/04/10 11:47:48;;;;;;;2.20;0.90;;;11.30;65.10;;;;;;5028694;28;20067;-70
2022/04/10 11:50:14;;;;;;;1.10;0.70;;;11.30;67.70;;;;;;5028150;28;20087;-71
2022/04/10 11:53:08;;;;;;;2.33;0.82;;;11.40;65.00;;;;;;5026695;28;20037;-70
2022/04/10 11:55:37;;;;;;;2.60;0.80;;;11.20;68.70;;;;;;5030463;28;20110;-72
2022/04/10 11:58:24;;;;;;;2.13;0.80;;;11.20;65.50;;;;;;5028277;28;20036;-72
2022/04/10 12:01:07;;;;;;;3.97;0.70;;;11.30;63.50;;;;;;5028696;28;20053;-72
2022/04/10 12:03:35;;;;;;;5.00;0.65;;;11.30;68.20;;;;;;5031422;28;20028;-71
2022/04/10 12:06:03;;;;;;;1.73;0.50;;;11.50;66.60;;;;;;5033012;28;20112;-70
2022/04/10 12:08:29;;;;;;;4.63;0.80;;;11.50;67.40;;;;;;5033561;28;20111;-71
2022/04/10 12:11:04;;;;;;;1.92;0.50;;;11.80;66.60;;;;;;5032920;28;20037;-71
2022/04/10 12:13:34;;;;;;;1.55;1.08;;;11.70;62.60;;;;;;5032636;28;20670;-70
2022/04/10 12:16:07;;;;;;;5.78;0.82;;;11.50;68.60;;;;;;5034115;28;20079;-71
2022/04/10 12:18:46;;;;;;;2.47;0.73;;;11.70;67.80;;;;;;5034560;28;20029;-71
2022/04/10 12:21:14;;;;;;;11.23;0.70;;;11.80;61.20;;;;;;5031929;28;20113;-70
2022/04/10 12:23:40;;;;;;;3.45;0.60;;;11.80;60.30;;;;;;5029612;28;20355;-71
2022/04/10 12:26:06;;;;;;;2.13;0.57;;;11.80;60.20;;;;;;5029874;28;20500;-71
2022/04/10 12:28:32;;;;;;;0.80;0.38;;;11.60;58.30;;;;;;5030886;28;20037;-71
2022/04/10 12:31:00;;;;;;;1.67;0.90;;;11.60;58.60;;;;;;5031831;28;20402;-71
2022/04/10 12:33:27;;;;;;;7.55;4.25;;;11.70;63.70;;;;;;5032930;28;20120;-71
2022/04/10 12:35:53;;;;;;;1.08;0.60;;;11.80;60.20;;;;;;5034157;28;20100;-71
2022/04/10 12:38:18;;;;;;;0.75;0.55;;;11.90;63.50;;;;;;5034303;28;20111;-71
2022/04/10 12:40:45;;;;;;;0.75;0.50;;;11.80;61.10;;;;;;5032888;28;20037;-71
2022/04/10 12:43:14;;;;;;;1.17;0.60;;;11.90;62.10;;;;;;5035256;28;20494;-71
2022/04/10 12:45:42;;;;;;;0.80;0.73;;;12.00;60.80;;;;;;5029223;28;20384;-71
2022/04/10 12:48:26;;;;;;;1.55;0.52;;;12.00;61.80;;;;;;5033023;28;20033;-71
2022/04/10 12:51:12;;;;;;;0.65;0.52;;;11.90;62.10;;;;;;5031812;28;20381;-71
2022/04/10 12:53:38;;;;;;;1.00;0.60;;;11.90;62.00;;;;;;5035644;28;20100;-71
2022/04/10 12:56:17;;;;;;;1.33;0.50;;;11.90;64.00;;;;;;5029170;28;20029;-71
2022/04/10 12:58:50;;;;;;;1.30;0.40;;;11.90;63.50;;;;;;5028916;28;20501;-70
2022/04/10 13:01:26;;;;;;;1.67;0.60;;;12.00;58.40;;;;;;5031950;28;20060;-70
2022/04/10 13:03:52;;;;;;;0.73;0.40;;;11.90;57.80;;;;;;5029882;28;20075;-71